Time;durP1;ratioP1;P1;durP2;ratioP2;P2;SDS_P1;SDS_P2;PMS_P1;PMS_P2;Temp;Humidity;BMP_temperature;BMP_pressure;BME280_temperature;BME280_humidity;BME280_pressure;Samples;Min_cycle;Max_cycle;Signal;HPM_P1;HPM_P2
2023/04/30 00:00:16;;;;;;;11.70;9.40;;;;;;;9.12;100.00;101159.31;2078121;28;20215;-64
2023/04/30 00:01:16;;;;;;;12.07;10.00;;;;;;;9.56;100.00;101230.38;2079190;28;20606;-64
2023/04/30 00:02:17;;;;;;;10.57;9.47;;;;;;;9.54;100.00;101233.56;2077259;28;20539;-64
2023/04/30 00:03:17;;;;;;;11.50;8.63;;;;;;;9.52;100.00;101232.41;2080820;28;20216;-64
2023/04/30 00:04:17;;;;;;;12.03;9.23;;;;;;;9.48;100.00;101229.66;2081257;28;20185;-64
2023/04/30 00:05:18;;;;;;;12.33;9.00;;;;;;;9.44;100.00;101231.69;2080926;28;20200;-64
2023/04/30 00:06:18;;;;;;;14.97;9.43;;;;;;;9.42;100.00;101216.69;2080977;28;20322;-64
2023/04/30 00:07:19;;;;;;;11.23;9.67;;;;;;;9.40;100.00;101228.19;2080611;28;20226;-64
2023/04/30 00:08:19;;;;;;;12.23;9.70;;;;;;;9.42;100.00;101219.47;2080413;28;20226;-64
2023/04/30 00:09:19;;;;;;;12.90;8.77;;;;;;;9.42;100.00;101217.47;2080932;28;20199;-64
2023/04/30 00:10:20;;;;;;;13.53;9.47;;;;;;;9.40;100.00;101230.94;2080916;28;20689;-64
2023/04/30 00:11:20;;;;;;;10.40;9.27;;;;;;;9.37;100.00;101228.22;2081042;28;20666;-64
2023/04/30 00:12:21;;;;;;;10.63;8.30;;;;;;;9.36;100.00;101223.88;2081198;28;20281;-64
2023/04/30 00:13:21;;;;;;;12.67;9.87;;;;;;;9.35;100.00;101222.31;2080842;28;20203;-64
2023/04/30 00:14:22;;;;;;;15.63;10.30;;;;;;;9.26;100.00;101216.44;2080867;28;20189;-64
2023/04/30 00:15:22;;;;;;;12.07;9.60;;;;;;;9.32;100.00;101237.72;2080708;28;20206;-64
2023/04/30 00:16:23;;;;;;;12.60;10.07;;;;;;;9.29;100.00;101221.97;2079848;28;20216;-64
2023/04/30 00:17:23;;;;;;;15.00;10.07;;;;;;;9.30;100.00;101234.59;2080543;28;20690;-64
2023/04/30 00:18:23;;;;;;;15.73;9.57;;;;;;;9.30;100.00;101231.84;2080233;28;20235;-64
2023/04/30 00:19:24;;;;;;;16.30;9.73;;;;;;;9.28;100.00;101233.44;2080742;28;20192;-64
2023/04/30 00:20:24;;;;;;;11.93;9.53;;;;;;;9.27;100.00;101229.09;2081240;28;20200;-64
2023/04/30 00:21:25;;;;;;;12.23;10.30;;;;;;;9.25;100.00;101232.28;2080506;28;20653;-64
2023/04/30 00:22:25;;;;;;;12.40;9.27;;;;;;;9.24;100.00;101230.72;2080864;28;20196;-64
2023/04/30 00:23:25;;;;;;;11.43;9.17;;;;;;;9.27;100.00;101234.63;2080705;28;20212;-64
2023/04/30 00:24:27;;;;;;;12.27;9.80;;;;;;;8.48;100.00;101108.53;2080959;28;20263;-64
2023/04/30 00:25:27;;;;;;;13.18;9.32;;;;;;;9.29;100.00;101235.00;2080629;28;20196;-64
2023/04/30 00:26:27;;;;;;;13.17;9.37;;;;;;;9.27;100.00;101232.66;2080766;28;20181;-64
2023/04/30 00:27:29;;;;;;;12.27;9.47;;;;;;;9.28;100.00;101236.97;2080008;28;20181;-64
2023/04/30 00:28:29;;;;;;;12.52;8.82;;;;;;;9.30;100.00;101236.56;2080808;28;20610;-64
2023/04/30 00:29:29;;;;;;;13.27;8.77;;;;;;;9.29;100.00;101237.78;2080829;28;20639;-64
2023/04/30 00:30:30;;;;;;;13.47;9.50;;;;;;;9.26;100.00;101233.03;2074354;28;20674;-64
2023/04/30 00:31:31;;;;;;;12.25;8.98;;;;;;;9.25;100.00;101237.00;2078036;28;20539;-64
2023/04/30 00:32:31;;;;;;;10.93;8.87;;;;;;;9.21;100.00;101231.50;2080692;28;20207;-64
2023/04/30 00:33:32;;;;;;;13.40;7.93;;;;;;;9.23;100.00;101233.88;2080850;28;20279;-64
2023/04/30 00:34:32;;;;;;;13.70;8.77;;;;;;;9.18;100.00;101235.09;2080651;28;20188;-64
2023/04/30 00:35:32;;;;;;;17.23;8.17;;;;;;;9.16;100.00;101240.25;2080714;28;20255;-64
2023/04/30 00:36:33;;;;;;;12.23;8.10;;;;;;;8.50;100.00;101131.00;2080845;28;20177;-64
2023/04/30 00:37:33;;;;;;;14.73;8.70;;;;;;;9.13;100.00;101232.75;2080025;28;20195;-64
2023/04/30 00:38:34;;;;;;;11.13;8.50;;;;;;;9.12;100.00;101233.94;2080577;28;20189;-64
2023/04/30 00:39:34;;;;;;;13.47;8.50;;;;;;;9.11;100.00;101231.59;2080241;28;20248;-64
2023/04/30 00:40:36;;;;;;;11.27;8.00;;;;;;;7.95;100.00;101054.84;2080636;28;20189;-64
2023/04/30 00:41:37;;;;;;;13.93;8.13;;;;;;;9.07;100.00;101236.38;2080545;28;20264;-64
2023/04/30 00:42:37;;;;;;;12.60;8.35;;;;;;;9.07;100.00;101236.38;2080695;28;20193;-64
2023/04/30 00:43:38;;;;;;;16.83;8.87;;;;;;;9.05;100.00;101234.03;2080593;28;20200;-64
2023/04/30 00:44:38;;;;;;;12.30;7.83;;;;;;;9.04;100.00;101231.66;2080828;28;20188;-64
2023/04/30 00:45:39;;;;;;;11.17;7.80;;;;;;;9.03;100.00;101230.09;2080576;28;20238;-64
2023/04/30 00:46:39;;;;;;;12.97;7.90;;;;;;;8.97;100.00;101215.91;2080665;28;20561;-64
2023/04/30 00:47:40;;;;;;;11.37;7.90;;;;;;;8.98;100.00;101216.72;2079944;28;20240;-64
2023/04/30 00:48:40;;;;;;;11.80;7.97;;;;;;;8.66;100.00;101166.44;2080691;28;20269;-64
2023/04/30 00:49:41;;;;;;;9.13;7.33;;;;;;;9.04;100.00;101226.13;2080717;28;20264;-64
2023/04/30 00:50:43;;;;;;;10.63;7.60;;;;;;;9.04;100.00;101238.00;2080586;28;20692;-64
2023/04/30 00:51:44;;;;;;;10.45;7.63;;;;;;;8.43;100.00;101138.56;2080332;28;20208;-64
2023/04/30 00:52:45;;;;;;;11.52;7.90;;;;;;;8.47;100.00;101139.31;2079924;28;20220;-64
2023/04/30 00:53:45;;;;;;;11.00;7.70;;;;;;;9.06;100.00;101227.28;2080859;28;20182;-64
2023/04/30 00:54:46;;;;;;;10.00;7.70;;;;;;;9.07;100.00;101226.09;2080592;28;20571;-64
2023/04/30 00:55:47;;;;;;;10.80;7.80;;;;;;;8.89;100.00;101214.41;2080717;28;20189;-64
2023/04/30 00:56:48;;;;;;;10.17;8.30;;;;;;;9.06;100.00;101227.28;2080518;28;20193;-64
2023/04/30 00:57:49;;;;;;;10.67;7.57;;;;;;;9.05;100.00;101222.97;2079800;28;20460;-64
2023/04/30 00:58:53;;;;;;;10.23;7.18;;;;;;;9.02;100.00;101228.53;2080399;28;20411;-64
2023/04/30 00:59:54;;;;;;;11.85;7.43;;;;;;;8.92;100.00;101210.03;2080662;28;20185;-64
2023/04/30 01:00:54;;;;;;;8.73;6.97;;;;;;;9.02;100.00;101228.53;2080497;28;20173;-64
2023/04/30 01:01:55;;;;;;;10.77;7.43;;;;;;;9.04;100.00;101224.16;2080729;28;20203;-64
2023/04/30 01:02:55;;;;;;;10.43;7.40;;;;;;;8.96;100.00;101219.09;2088777;28;20246;-64
2023/04/30 01:03:56;;;;;;;10.60;7.90;;;;;;;9.03;100.00;101230.09;2081258;28;20349;-64
2023/04/30 01:04:56;;;;;;;9.17;7.20;;;;;;;9.02;100.00;101226.53;2080561;28;20197;-64
2023/04/30 01:05:57;;;;;;;11.73;7.27;;;;;;;9.05;100.00;101236.00;2080092;28;20314;-64
2023/04/30 01:06:59;;;;;;;9.33;7.17;;;;;;;9.05;100.00;101225.72;2077157;28;20207;-64
2023/04/30 01:08:00;;;;;;;10.43;7.03;;;;;;;9.07;100.00;101230.84;2073986;28;20178;-64
2023/04/30 01:09:00;;;;;;;9.07;7.37;;;;;;;9.10;100.00;101225.28;2080647;28;20709;-64
2023/04/30 01:10:01;;;;;;;9.90;7.27;;;;;;;9.13;100.00;101235.53;2080476;28;20196;-64
2023/04/30 01:11:21;;;;;;;11.98;7.07;;;;;;;9.11;100.00;101229.63;2080890;28;20180;-64
2023/04/30 01:12:40;;;;;;;15.32;7.65;;;;;;;9.11;100.00;101226.06;2076850;28;20177;-64
2023/04/30 01:13:54;;;;;;;10.35;7.35;;;;;;;9.09;100.00;101232.03;2079785;28;20223;-64
2023/04/30 01:15:14;;;;;;;11.70;7.25;;;;;;;9.09;100.00;101232.03;2078118;28;20164;-64
2023/04/30 01:16:23;;;;;;;9.85;7.22;;;;;;;8.03;100.00;101061.88;2076672;28;20681;-64
2023/04/30 01:17:59;;;;;;;12.82;7.80;;;;;;;7.96;100.00;101048.13;2080078;28;20247;-64
2023/04/30 01:19:07;;;;;;;10.45;7.35;;;;;;;9.07;100.00;101225.31;2080409;28;20208;-64
2023/04/30 01:20:10;;;;;;;9.75;6.97;;;;;;;8.91;100.00;101212.00;2080435;28;20195;-64
2023/04/30 01:21:12;;;;;;;10.15;7.28;;;;;;;8.81;100.00;101199.06;2080281;28;20197;-64
2023/04/30 01:22:44;;;;;;;10.07;7.60;;;;;;;8.94;100.00;101225.03;2080679;28;20197;-64
2023/04/30 01:24:22;;;;;;;9.95;7.70;;;;;;;8.95;100.00;101234.88;2067231;28;20204;-64
2023/04/30 01:25:43;;;;;;;11.07;7.30;;;;;;;8.95;100.00;101234.88;2080483;28;20195;-64
2023/04/30 01:27:05;;;;;;;10.38;7.43;;;;;;;8.95;100.00;101226.59;2080166;28;20712;-64
2023/04/30 01:28:09;;;;;;;9.93;7.35;;;;;;;8.95;100.00;101228.56;2081259;28;20173;-64
2023/04/30 01:29:11;;;;;;;10.85;7.22;;;;;;;8.89;100.00;101225.47;2082103;28;20201;-64
2023/04/30 01:30:13;;;;;;;8.88;7.03;;;;;;;8.95;100.00;101223.84;2082407;28;20182;-64
2023/04/30 01:31:17;;;;;;;8.95;7.13;;;;;;;8.96;100.00;101225.41;2082253;28;20266;-64
2023/04/30 01:32:17;;;;;;;10.00;7.22;;;;;;;8.99;100.00;101232.09;2082006;28;20248;-64
2023/04/30 01:33:17;;;;;;;10.57;7.70;;;;;;;8.99;100.00;101238.41;2082094;28;20677;-64
2023/04/30 01:34:18;;;;;;;9.60;7.20;;;;;;;9.02;100.00;101236.81;2082177;28;20188;-64
2023/04/30 01:35:19;;;;;;;9.77;7.00;;;;;;;9.10;100.00;101241.09;2081977;28;20576;-64
2023/04/30 01:36:41;;;;;;;8.57;6.50;;;;;;;9.16;100.00;101229.19;2082459;28;20639;-64
2023/04/30 01:38:26;;;;;;;9.50;7.38;;;;;;;9.17;100.00;101233.53;2081253;28;20422;-64
2023/04/30 01:39:34;;;;;;;9.38;6.93;;;;;;;9.16;100.00;101231.94;2072732;28;20189;-64
2023/04/30 01:40:56;;;;;;;8.50;6.43;;;;;;;8.99;100.00;101202.47;2078279;28;20582;-64
2023/04/30 01:42:06;;;;;;;9.70;6.28;;;;;;;9.14;100.00;101223.28;2080159;28;20205;-64
2023/04/30 01:43:16;;;;;;;10.82;6.80;;;;;;;9.16;100.00;101225.63;2082076;28;20635;-64
2023/04/30 01:45:18;;;;;;;9.93;6.90;;;;;;;9.18;100.00;101221.25;2082265;28;20184;-64
2023/04/30 01:46:26;;;;;;;11.20;7.00;;;;;;;9.24;100.00;101213.31;2065565;28;20711;-64
2023/04/30 01:47:39;;;;;;;10.25;7.15;;;;;;;9.27;100.00;101220.81;2081595;28;20186;-64
2023/04/30 01:48:52;;;;;;;9.85;7.20;;;;;;;9.30;100.00;101237.38;2082095;28;20197;-64
2023/04/30 01:50:14;;;;;;;9.10;6.65;;;;;;;9.33;100.00;101214.41;2082086;28;20270;-64
2023/04/30 01:51:21;;;;;;;11.93;7.10;;;;;;;9.38;100.00;101208.44;2082131;28;20286;-64
2023/04/30 01:52:34;;;;;;;9.00;6.70;;;;;;;9.41;100.00;101206.81;2082093;28;20177;-64
2023/04/30 01:53:43;;;;;;;10.60;7.35;;;;;;;9.12;100.00;101147.47;2074076;28;20161;-64
2023/04/30 01:54:51;;;;;;;10.40;6.95;;;;;;;8.65;100.00;101074.44;2074021;28;20230;-64
2023/04/30 01:55:58;;;;;;;13.30;7.10;;;;;;;9.56;100.00;101211.03;2074148;28;20170;-64
2023/04/30 01:57:15;;;;;;;10.38;6.90;;;;;;;8.75;100.00;101081.88;2081881;28;20204;-64
2023/04/30 01:58:16;;;;;;;10.80;7.05;;;;;;;9.54;100.00;101202.34;2073406;28;20913;-64
2023/04/30 01:59:17;;;;;;;10.93;7.47;;;;;;;9.55;100.00;101199.19;2081704;28;20218;-64
2023/04/30 02:00:18;;;;;;;8.85;7.18;;;;;;;9.54;100.00;101202.34;2082178;28;20182;-64
2023/04/30 02:01:29;;;;;;;11.10;7.33;;;;;;;9.56;100.00;101213.78;2081900;28;20195;-64
2023/04/30 02:02:30;;;;;;;11.00;7.45;;;;;;;9.56;100.00;101206.28;2081761;28;20188;-64
2023/04/30 02:03:32;;;;;;;12.57;7.97;;;;;;;9.59;100.00;101201.91;2081899;28;20194;-64
2023/04/30 02:04:32;;;;;;;12.77;7.30;;;;;;;9.65;100.00;101203.03;2082006;28;20196;-64
2023/04/30 02:05:33;;;;;;;14.93;7.30;;;;;;;9.66;100.00;101199.84;2081747;28;20190;-64
2023/04/30 02:06:33;;;;;;;13.77;7.30;;;;;;;9.66;100.00;101199.84;2081783;28;20164;-64
2023/04/30 02:07:39;;;;;;;9.93;6.90;;;;;;;9.67;100.00;101197.84;2081003;28;20687;-64
2023/04/30 02:08:40;;;;;;;9.75;7.93;;;;;;;9.66;100.00;101197.09;2081816;28;20169;-64
2023/04/30 02:09:40;;;;;;;11.93;7.17;;;;;;;9.13;100.00;101113.84;2082166;28;20642;-64
2023/04/30 02:10:40;;;;;;;12.27;7.10;;;;;;;9.74;100.00;101204.09;2081837;28;20254;-64
2023/04/30 02:11:41;;;;;;;32.00;8.67;;;;;;;8.66;100.00;101028.28;2082043;28;20277;-64
2023/04/30 02:12:41;;;;;;;41.03;10.17;;;;;;;9.62;100.00;101176.97;2081710;28;20194;-64
2023/04/30 02:13:42;;;;;;;68.47;11.17;;;;;;;9.53;100.00;101151.00;2081927;28;20188;-64
2023/04/30 02:14:42;;;;;;;50.67;10.40;;;;;;;9.86;100.00;101208.31;2081728;28;20215;-64
2023/04/30 02:15:42;;;;;;;46.63;9.53;;;;;;;9.91;100.00;101203.13;2081838;28;20178;-64
2023/04/30 02:16:43;;;;;;;24.53;7.77;;;;;;;9.45;100.00;101130.91;2081206;28;20183;-64
2023/04/30 02:17:43;;;;;;;30.73;7.67;;;;;;;9.99;100.00;101196.28;2080241;28;20179;-64
2023/04/30 02:18:44;;;;;;;11.90;7.00;;;;;;;10.05;100.00;101199.44;2081912;28;20186;-64
2023/04/30 02:19:44;;;;;;;9.73;6.47;;;;;;;9.30;100.00;101076.16;2081834;28;20567;-64
2023/04/30 02:20:45;;;;;;;12.27;7.10;;;;;;;10.10;100.00;101194.19;2081722;28;20278;-64
2023/04/30 02:21:45;;;;;;;10.30;6.80;;;;;;;10.10;100.00;101193.44;2081638;28;20281;-64
2023/04/30 02:22:46;;;;;;;11.80;6.27;;;;;;;10.00;100.00;101183.25;2081699;28;20218;-64
2023/04/30 02:23:46;;;;;;;7.77;6.13;;;;;;;10.15;100.00;101190.19;2081653;28;20179;-64
2023/04/30 02:24:47;;;;;;;11.20;6.23;;;;;;;10.13;100.00;101201.69;2081963;28;20169;-64
2023/04/30 02:25:47;;;;;;;8.93;5.90;;;;;;;10.12;100.00;101193.78;2073890;28;20182;-64
2023/04/30 02:26:47;;;;;;;9.20;6.57;;;;;;;10.12;100.00;101200.13;2080331;28;20685;-64
2023/04/30 02:27:49;;;;;;;8.23;6.00;;;;;;;10.13;100.00;101198.13;2081050;28;20197;-64
2023/04/30 02:28:49;;;;;;;8.83;6.13;;;;;;;10.15;100.00;101199.28;2081636;28;20180;-64
2023/04/30 02:29:50;;;;;;;8.77;6.30;;;;;;;10.16;100.00;101205.59;2081888;28;20488;-64
2023/04/30 02:30:51;;;;;;;12.50;6.83;;;;;;;10.16;100.00;101192.56;2081604;28;20202;-64
2023/04/30 02:31:51;;;;;;;15.37;7.37;;;;;;;10.14;100.00;101192.16;2081742;28;20413;-64
2023/04/30 02:32:51;;;;;;;13.50;7.30;;;;;;;10.15;100.00;101193.72;2081662;28;20222;-64
2023/04/30 02:33:52;;;;;;;8.33;6.53;;;;;;;10.12;100.00;101180.72;2081965;28;20190;-64
2023/04/30 02:34:52;;;;;;;10.57;6.60;;;;;;;9.20;100.00;101038.34;2081724;28;20201;-64
2023/04/30 02:35:54;;;;;;;7.97;6.03;;;;;;;10.18;100.00;101203.19;2081623;28;20186;-64
2023/04/30 02:36:54;;;;;;;10.57;6.83;;;;;;;10.14;100.00;101194.16;2081694;28;20187;-64
2023/04/30 02:37:54;;;;;;;9.93;6.47;;;;;;;10.14;100.00;101194.94;2080812;28;20437;-64
2023/04/30 02:38:55;;;;;;;9.47;6.60;;;;;;;10.13;100.00;101198.13;2080852;28;20224;-64
2023/04/30 02:39:56;;;;;;;15.13;7.60;;;;;;;10.11;100.00;101195.00;2081244;28;20186;-64
2023/04/30 02:40:56;;;;;;;9.17;6.37;;;;;;;9.62;100.00;101121.63;2081572;28;20186;-64
2023/04/30 02:41:57;;;;;;;9.03;6.77;;;;;;;10.10;100.00;101202.50;2081725;28;20210;-64
2023/04/30 02:42:57;;;;;;;9.07;6.60;;;;;;;10.04;100.00;101192.31;2081764;28;20568;-64
2023/04/30 02:43:58;;;;;;;9.50;6.77;;;;;;;10.05;100.00;101193.88;2081549;28;20204;-64
2023/04/30 02:44:58;;;;;;;10.70;7.30;;;;;;;10.07;100.00;101191.47;2081483;28;20677;-64
2023/04/30 02:45:58;;;;;;;8.20;6.47;;;;;;;10.09;100.00;101194.63;2081538;28;20205;-64
2023/04/30 02:47:00;;;;;;;8.10;6.53;;;;;;;10.12;100.00;101189.03;2081539;28;20199;-64
2023/04/30 02:48:00;;;;;;;10.07;6.70;;;;;;;10.14;100.00;101203.25;2080741;28;20229;-64
2023/04/30 02:49:01;;;;;;;10.90;6.97;;;;;;;10.12;100.00;101196.56;2081593;28;20414;-64
2023/04/30 02:50:01;;;;;;;13.07;7.23;;;;;;;10.14;100.00;101199.72;2081849;28;20188;-64
2023/04/30 02:51:03;;;;;;;16.00;7.43;;;;;;;10.14;100.00;101196.94;2081494;28;20199;-64
2023/04/30 02:52:04;;;;;;;15.63;7.87;;;;;;;10.09;100.00;101195.41;2081434;28;20208;-64
2023/04/30 02:53:04;;;;;;;17.97;7.03;;;;;;;10.08;100.00;101190.28;2081482;28;20438;-64
2023/04/30 02:54:04;;;;;;;12.67;6.93;;;;;;;10.13;100.00;101198.13;2081518;28;20628;-64
2023/04/30 02:55:06;;;;;;;9.73;6.20;;;;;;;10.11;100.00;101203.31;2081460;28;20717;-64
2023/04/30 02:56:07;;;;;;;13.13;6.60;;;;;;;10.11;100.00;101201.31;2081478;28;20185;-64
2023/04/30 02:57:07;;;;;;;8.37;6.30;;;;;;;9.92;100.00;101170.66;2081103;28;20411;-64
2023/04/30 02:58:07;;;;;;;9.43;6.37;;;;;;;9.86;100.00;101183.41;2081245;28;20204;-64
2023/04/30 02:59:08;;;;;;;10.03;6.57;;;;;;;9.55;100.00;101124.47;2076821;28;20219;-64
2023/04/30 03:00:09;;;;;;;11.67;6.33;;;;;;;9.91;100.00;101188.50;2080146;28;20193;-64
2023/04/30 03:01:09;;;;;;;11.20;6.67;;;;;;;10.11;100.00;101206.88;2081495;28;20198;-64
2023/04/30 03:02:11;;;;;;;11.43;7.07;;;;;;;9.25;100.00;101065.53;2081440;28;20185;-64
2023/04/30 03:03:11;;;;;;;8.93;6.53;;;;;;;10.14;100.00;101205.25;2081333;28;20212;-64
2023/04/30 03:04:12;;;;;;;9.53;6.67;;;;;;;10.06;100.00;101185.16;2081650;28;20184;-64
2023/04/30 03:05:14;;;;;;;9.50;6.40;;;;;;;10.17;100.00;101210.75;2081370;28;20179;-64
2023/04/30 03:06:15;;;;;;;16.40;6.83;;;;;;;10.18;100.00;101197.66;2081227;28;20255;-64
2023/04/30 03:07:15;;;;;;;10.47;6.70;;;;;;;10.19;100.00;101202.78;2081124;28;20510;-64
2023/04/30 03:08:15;;;;;;;10.80;6.30;;;;;;;10.18;100.00;101200.44;2080985;28;20255;-64
2023/04/30 03:09:16;;;;;;;9.73;6.67;;;;;;;10.19;100.00;101202.03;2081537;28;20190;-64
2023/04/30 03:10:17;;;;;;;9.50;6.20;;;;;;;10.11;100.00;101197.75;2081551;28;20233;-64
2023/04/30 03:11:18;;;;;;;11.33;6.47;;;;;;;10.15;100.00;101204.81;2081426;28;20433;-64
2023/04/30 03:12:18;;;;;;;7.30;6.47;;;;;;;10.16;100.00;101211.16;2081297;28;20940;-64
2023/04/30 03:13:19;;;;;;;7.30;5.90;;;;;;;10.16;100.00;101208.38;2081260;28;20705;-64
2023/04/30 03:14:20;;;;;;;8.13;6.28;;;;;;;10.14;100.00;101208.03;2081220;28;20192;-64
2023/04/30 03:15:20;;;;;;;11.80;6.87;;;;;;;10.12;100.00;101215.94;2081531;28;20177;-64
2023/04/30 03:16:21;;;;;;;9.73;6.70;;;;;;;9.70;100.00;101164.63;2081622;28;20184;-64
2023/04/30 03:17:23;;;;;;;11.87;6.60;;;;;;;10.09;100.00;101200.16;2081004;28;20195;-64
2023/04/30 03:18:24;;;;;;;9.10;6.38;;;;;;;10.02;100.00;101200.22;2080874;28;20202;-64
2023/04/30 03:19:24;;;;;;;10.03;6.60;;;;;;;10.05;100.00;101202.19;2081236;28;20214;-64
2023/04/30 03:20:24;;;;;;;6.93;6.03;;;;;;;10.03;100.00;101212.84;2081296;28;20263;-64
2023/04/30 03:21:25;;;;;;;10.00;6.53;;;;;;;10.01;100.00;101207.75;2081132;28;20173;-64
2023/04/30 03:22:25;;;;;;;10.40;7.57;;;;;;;10.01;100.00;101210.53;2076214;28;20202;-64
2023/04/30 03:23:27;;;;;;;9.83;6.77;;;;;;;10.00;100.00;101208.16;2081471;28;20285;-64
2023/04/30 03:24:27;;;;;;;10.90;6.88;;;;;;;10.01;100.00;101212.50;2081416;28;20615;-64
2023/04/30 03:25:27;;;;;;;7.83;6.60;;;;;;;10.03;100.00;101210.06;2081487;28;20196;-64
2023/04/30 03:26:28;;;;;;;9.87;6.77;;;;;;;10.00;100.00;101211.69;2081332;28;20191;-64
2023/04/30 03:27:28;;;;;;;7.63;6.37;;;;;;;9.94;100.00;101205.03;2080519;28;20847;-64
2023/04/30 03:28:29;;;;;;;9.77;7.37;;;;;;;9.91;100.00;101207.88;2081122;28;20263;-64
2023/04/30 03:29:29;;;;;;;9.10;7.13;;;;;;;9.92;100.00;101212.19;2078790;28;20213;-64
2023/04/30 03:30:29;;;;;;;11.33;6.53;;;;;;;9.86;100.00;101211.88;2081401;28;20171;-64
2023/04/30 03:31:30;;;;;;;9.27;6.90;;;;;;;9.70;100.00;101202.56;2081749;28;20728;-64
2023/04/30 03:32:31;;;;;;;8.23;6.67;;;;;;;9.77;100.00;101210.78;2081369;28;20550;-64
2023/04/30 03:33:32;;;;;;;7.67;6.43;;;;;;;9.40;100.00;101155.47;2081276;28;20191;-64
2023/04/30 03:34:32;;;;;;;10.10;6.80;;;;;;;9.73;100.00;101207.28;2081413;28;20191;-64
2023/04/30 03:35:33;;;;;;;8.73;6.87;;;;;;;9.12;100.00;101115.06;2081205;28;20184;-64
2023/04/30 03:36:34;;;;;;;10.27;6.87;;;;;;;9.78;100.00;101218.69;2081277;28;20269;-64
2023/04/30 03:37:34;;;;;;;9.53;7.03;;;;;;;9.73;100.00;101213.59;2080530;28;20935;-64
2023/04/30 03:38:35;;;;;;;8.90;6.73;;;;;;;8.99;100.00;101113.22;2081058;28;20220;-64
2023/04/30 03:39:35;;;;;;;8.50;6.83;;;;;;;9.68;100.00;101214.06;2081412;28;20250;-64
2023/04/30 03:40:35;;;;;;;9.07;7.27;;;;;;;9.72;100.00;101222.31;2081250;28;20178;-64
2023/04/30 03:41:36;;;;;;;9.20;6.97;;;;;;;9.74;100.00;101222.69;2081282;28;20188;-64
2023/04/30 03:42:36;;;;;;;9.60;7.07;;;;;;;9.75;100.00;101216.75;2081033;28;20661;-64
2023/04/30 03:43:37;;;;;;;8.53;6.73;;;;;;;9.78;100.00;101220.69;2081248;28;20247;-64
2023/04/30 03:44:37;;;;;;;9.60;6.80;;;;;;;9.80;100.00;101227.38;2081139;28;20752;-64
2023/04/30 03:45:38;;;;;;;8.30;6.80;;;;;;;9.81;100.00;101226.19;2081280;28;20707;-64
2023/04/30 03:46:38;;;;;;;9.07;6.67;;;;;;;9.78;100.00;101229.75;2081263;28;20184;-64
2023/04/30 03:47:39;;;;;;;9.70;6.50;;;;;;;9.79;100.00;101231.31;2080367;28;20174;-64
2023/04/30 03:48:39;;;;;;;10.50;6.80;;;;;;;9.84;100.00;101230.09;2081275;28;20189;-64
2023/04/30 03:49:39;;;;;;;7.50;6.70;;;;;;;9.44;100.00;101168.06;2081225;28;20173;-64
2023/04/30 03:50:40;;;;;;;9.43;6.90;;;;;;;9.88;100.00;101230.81;2080859;28;20199;-64
2023/04/30 03:51:41;;;;;;;12.33;7.40;;;;;;;9.89;100.00;101233.19;2081210;28;20189;-64
2023/04/30 03:52:41;;;;;;;11.63;7.50;;;;;;;9.92;100.00;101231.56;2081076;28;20196;-64
2023/04/30 03:53:41;;;;;;;12.03;7.70;;;;;;;9.95;100.00;101231.53;2081219;28;20235;-64
2023/04/30 03:54:42;;;;;;;15.03;7.87;;;;;;;9.83;100.00;101222.97;2081081;28;20178;-64
2023/04/30 03:55:42;;;;;;;14.90;7.90;;;;;;;9.92;100.00;101239.88;2081392;28;20182;-64
2023/04/30 03:56:43;;;;;;;14.87;7.53;;;;;;;9.92;100.00;101239.88;2072933;28;20675;-64
2023/04/30 03:57:43;;;;;;;9.20;6.77;;;;;;;9.94;100.00;101235.50;2079283;28;20717;-64
2023/04/30 03:58:44;;;;;;;13.23;7.40;;;;;;;9.94;100.00;101235.50;2081210;28;20196;-64
2023/04/30 03:59:44;;;;;;;13.07;7.33;;;;;;;9.95;100.00;101239.06;2081120;28;20187;-64
2023/04/30 04:00:46;;;;;;;10.60;7.73;;;;;;;9.13;100.00;101138.75;2081010;28;20643;-64
2023/04/30 04:01:47;;;;;;;10.70;7.60;;;;;;;9.93;100.00;101241.44;2081050;28;20316;-64
2023/04/30 04:02:47;;;;;;;10.20;7.03;;;;;;;9.99;100.00;101240.59;2080767;28;20423;-64
2023/04/30 04:03:48;;;;;;;9.60;7.53;;;;;;;9.97;100.00;101233.91;2080925;28;20242;-64
2023/04/30 04:04:50;;;;;;;9.47;7.37;;;;;;;9.67;100.00;101193.13;2081249;28;20179;-64
2023/04/30 04:05:50;;;;;;;10.73;7.10;;;;;;;9.78;100.00;101193.78;2080955;28;20313;-64
2023/04/30 04:06:50;;;;;;;8.97;7.13;;;;;;;10.15;100.00;101256.66;2081005;28;20430;-64
2023/04/30 04:07:51;;;;;;;9.90;7.47;;;;;;;10.07;100.00;101231.03;2080053;28;20625;-64
2023/04/30 04:08:51;;;;;;;10.43;7.00;;;;;;;10.24;100.00;101251.41;2080875;28;20200;-64
2023/04/30 04:09:52;;;;;;;9.67;6.73;;;;;;;10.32;100.00;101247.34;2079804;28;20342;-64
2023/04/30 04:10:52;;;;;;;7.80;6.73;;;;;;;10.37;100.00;101252.41;2080938;28;20188;-64
2023/04/30 04:11:53;;;;;;;9.53;7.43;;;;;;;10.40;100.00;101252.38;2081484;28;20192;-64
2023/04/30 04:12:53;;;;;;;10.03;6.70;;;;;;;9.80;100.00;101157.38;2081374;28;20234;-64
2023/04/30 04:13:54;;;;;;;9.70;7.03;;;;;;;10.51;100.00;101255.78;2080973;28;20560;-64
2023/04/30 04:14:55;;;;;;;8.27;6.73;;;;;;;10.18;100.00;101197.66;2081013;28;20183;-64
2023/04/30 04:15:55;;;;;;;9.10;7.43;;;;;;;10.63;100.00;101252.47;2080994;28;20443;-64
2023/04/30 04:16:56;;;;;;;9.43;7.20;;;;;;;9.91;100.00;101135.88;2080842;28;20253;-64
2023/04/30 04:17:57;;;;;;;8.67;6.93;;;;;;;10.73;100.00;101247.97;2079930;28;20670;-64
2023/04/30 04:18:57;;;;;;;11.63;7.30;;;;;;;10.84;100.00;101257.69;2080890;28;20859;-64
2023/04/30 04:19:58;;;;;;;10.03;7.00;;;;;;;10.91;100.00;101251.28;2080945;28;20662;-64
2023/04/30 04:21:00;;;;;;;10.70;7.27;;;;;;;10.99;100.00;101258.25;2080906;28;20675;-64
2023/04/30 04:22:00;;;;;;;11.33;7.03;;;;;;;10.97;100.00;101242.03;2081175;28;20173;-64
2023/04/30 04:23:01;;;;;;;9.23;6.93;;;;;;;11.14;100.00;101259.59;2080949;28;20950;-64
2023/04/30 04:24:07;;;;;;;9.43;7.03;;;;;;;11.19;100.00;101259.13;2078271;28;20209;-64
2023/04/30 04:25:08;;;;;;;9.40;6.90;;;;;;;11.27;100.00;101258.59;2078597;28;20188;-64
2023/04/30 04:26:09;;;;;;;9.37;7.40;;;;;;;11.27;100.00;101244.72;2080884;28;20960;-64
2023/04/30 04:27:10;;;;;;;11.73;8.00;;;;;;;11.45;100.00;101261.06;2080422;28;20901;-64
2023/04/30 04:28:10;;;;;;;12.93;7.63;;;;;;;11.50;100.00;101255.81;2080339;28;20184;-64
2023/04/30 04:29:11;;;;;;;10.07;7.53;;;;;;;11.60;100.00;101257.66;2080945;28;20665;-64
2023/04/30 04:30:12;;;;;;;9.97;7.33;;;;;;;11.67;100.00;101254.75;2080760;28;20668;-64
2023/04/30 04:31:13;;;;;;;11.93;7.37;;;;;;;11.74;100.00;101248.28;2081040;28;20918;-62
2023/04/30 04:32:13;;;;;;;12.63;7.03;;;;;;;11.82;100.00;101252.47;2080915;28;20896;-62
2023/04/30 04:33:14;;;;;;;10.70;8.00;;;;;;;11.49;100.00;101186.84;2080923;28;20203;-62
2023/04/30 04:34:14;;;;;;;11.43;8.50;;;;;;;11.97;100.00;101253.78;2080956;28;20207;-62
2023/04/30 04:35:16;;;;;;;12.33;7.53;;;;;;;12.03;100.00;101258.41;2080792;28;20250;-62
2023/04/30 04:36:16;;;;;;;12.07;7.67;;;;;;;11.69;100.00;101196.03;2080941;28;20192;-62
2023/04/30 04:37:17;;;;;;;9.20;7.63;;;;;;;12.15;100.00;101252.22;2080248;28;20550;-62
2023/04/30 04:38:18;;;;;;;11.10;7.73;;;;;;;12.21;100.00;101258.06;2080187;28;20596;-62
2023/04/30 04:39:18;;;;;;;10.43;7.40;;;;;;;12.27;100.00;101250.78;2080687;28;20288;-62
2023/04/30 04:40:19;;;;;;;11.70;7.90;;;;;;;12.35;100.00;101257.78;2080847;28;20445;-62
2023/04/30 04:41:19;;;;;;;9.40;7.60;;;;;;;12.42;100.00;101252.06;2080836;28;20192;-62
2023/04/30 04:42:20;;;;;;;11.73;8.27;;;;;;;12.43;100.00;101242.50;2080851;28;20185;-62
2023/04/30 04:43:21;;;;;;;10.50;7.57;;;;;;;12.51;100.00;101255.81;2080694;28;20193;-62
2023/04/30 04:44:21;;;;;;;12.00;8.23;;;;;;;12.58;100.00;101255.69;2080741;28;20197;-62
2023/04/30 04:45:22;;;;;;;15.57;8.23;;;;;;;12.65;100.00;101258.28;2080642;28;20629;-62
2023/04/30 04:46:24;;;;;;;9.77;8.07;;;;;;;12.73;100.00;101261.69;2080702;28;20173;-62
2023/04/30 04:47:25;;;;;;;9.63;7.40;;;;;;;12.68;100.00;101242.75;2080308;28;20427;-62